createdAt,value
2022-09-28T00:01:18.389Z,5.15
2022-09-28T00:03:47.341Z,6.55
2022-09-28T00:06:18.630Z,6.90
2022-09-28T00:08:49.220Z,7.30
2022-09-28T00:11:20.217Z,8.90
2022-09-28T00:13:55.602Z,8.43
2022-09-28T00:16:28.114Z,6.58
2022-09-28T00:18:55.780Z,4.73
2022-09-28T00:21:27.126Z,7.12
2022-09-28T00:24:12.668Z,4.62
2022-09-28T00:26:47.905Z,8.18
2022-09-28T00:29:26.454Z,5.35
2022-09-28T00:32:00.630Z,6.65
2022-09-28T00:34:38.040Z,5.42
2022-09-28T00:37:08.443Z,4.55
2022-09-28T00:39:37.729Z,8.03
2022-09-28T00:42:15.740Z,6.05
2022-09-28T00:44:57.798Z,4.45
2022-09-28T00:47:51.816Z,5.92
2022-09-28T00:53:10.692Z,6.72
2022-09-28T00:55:58.450Z,6.12
2022-09-28T00:58:33.608Z,5.25
2022-09-28T01:01:01.791Z,4.97
2022-09-28T01:03:29.776Z,6.75
2022-09-28T01:05:59.973Z,5.25
2022-09-28T01:08:29.733Z,4.50
2022-09-28T01:10:59.601Z,5.58
2022-09-28T01:13:31.016Z,5.53
2022-09-28T01:16:49.810Z,4.20
2022-09-28T01:19:54.931Z,5.72
2022-09-28T01:22:42.775Z,6.17
2022-09-28T01:25:46.742Z,4.65
2022-09-28T01:31:09.938Z,3.70
2022-09-28T01:33:48.282Z,3.60
2022-09-28T01:36:21.112Z,4.37
2022-09-28T01:38:55.993Z,5.78
2022-09-28T01:41:28.532Z,8.83
2022-09-28T01:44:01.811Z,5.28
2022-09-28T01:46:34.251Z,7.03
2022-09-28T01:49:11.364Z,8.53
2022-09-28T01:51:56.127Z,4.72
2022-09-28T01:54:34.863Z,4.95
2022-09-28T01:57:23.811Z,6.60
2022-09-28T02:00:08.295Z,9.00
2022-09-28T02:03:04.350Z,7.30
2022-09-28T02:05:39.750Z,5.53
2022-09-28T02:08:21.565Z,7.28
2022-09-28T02:10:56.342Z,4.90
2022-09-28T02:13:35.283Z,6.87
2022-09-28T02:16:20.024Z,10.32
2022-09-28T02:18:50.477Z,7.47
2022-09-28T02:21:35.630Z,7.85
2022-09-28T02:24:10.934Z,11.30
2022-09-28T02:26:42.940Z,10.75
2022-09-28T02:29:10.757Z,8.45
2022-09-28T02:31:38.534Z,7.92
2022-09-28T02:34:06.135Z,10.58
2022-09-28T02:36:34.292Z,8.38
2022-09-28T02:39:02.176Z,7.55
2022-09-28T02:41:41.494Z,24.80
2022-09-28T02:44:35.471Z,19.07
2022-09-28T02:47:14.354Z,17.50
2022-09-28T02:50:09.092Z,12.47
2022-09-28T02:53:03.512Z,10.95
2022-09-28T02:55:55.261Z,8.65
2022-09-28T02:58:50.302Z,8.45
2022-09-28T03:02:04.562Z,11.88
2022-09-28T03:04:49.779Z,10.28
2022-09-28T03:07:30.664Z,11.28
2022-09-28T03:10:18.300Z,10.23
2022-09-28T03:12:48.856Z,9.50
2022-09-28T03:15:24.352Z,8.78
2022-09-28T03:17:53.045Z,6.62
2022-09-28T03:20:20.868Z,7.75
2022-09-28T03:23:05.903Z,7.00
2022-09-28T03:25:18.283Z,7.60
2022-09-28T03:27:45.971Z,8.05
2022-09-28T03:30:15.474Z,6.45
2022-09-28T03:32:44.859Z,8.00
2022-09-28T03:35:12.802Z,8.73
2022-09-28T03:37:40.209Z,12.53
2022-09-28T03:40:08.701Z,17.98
2022-09-28T03:42:37.371Z,9.70
2022-09-28T03:45:06.712Z,10.93
2022-09-28T03:47:34.600Z,9.70
2022-09-28T03:50:02.226Z,10.72
2022-09-28T03:52:30.119Z,11.90
2022-09-28T03:54:57.734Z,16.30
2022-09-28T03:57:25.348Z,15.25
2022-09-28T03:59:52.944Z,16.90
2022-09-28T04:02:20.396Z,18.52
2022-09-28T04:04:47.927Z,12.73
2022-09-28T04:07:15.475Z,13.83
2022-09-28T04:09:43.339Z,14.87
2022-09-28T04:12:10.839Z,13.00
2022-09-28T04:14:38.405Z,11.55
2022-09-28T04:17:06.826Z,11.95
2022-09-28T04:19:34.376Z,15.85
2022-09-28T04:22:13.855Z,14.83
2022-09-28T04:24:43.094Z,22.40
2022-09-28T04:27:28.995Z,17.25
2022-09-28T04:29:56.567Z,19.10
2022-09-28T04:32:24.076Z,14.83
2022-09-28T04:34:52.010Z,23.02
2022-09-28T04:37:19.558Z,61.10
2022-09-28T04:39:48.589Z,82.62
2022-09-28T04:42:18.192Z,56.65
2022-09-28T04:44:46.051Z,48.63
2022-09-28T04:47:13.693Z,25.50
2022-09-28T04:50:01.339Z,20.72
2022-09-28T04:52:30.609Z,20.40
2022-09-28T04:54:58.156Z,24.23
2022-09-28T04:57:26.747Z,25.43
2022-09-28T04:59:55.054Z,24.67
2022-09-28T05:02:22.545Z,32.17
2022-09-28T05:05:08.816Z,30.45
2022-09-28T05:07:41.438Z,33.37
2022-09-28T05:10:09.229Z,32.75
2022-09-28T05:12:38.228Z,27.27
2022-09-28T05:15:06.605Z,13.83
2022-09-28T05:17:34.458Z,14.73
2022-09-28T05:20:05.032Z,7.58
2022-09-28T05:22:33.077Z,7.72
2022-09-28T05:25:02.493Z,9.28
2022-09-28T05:27:31.967Z,11.65
2022-09-28T05:30:01.299Z,25.27
2022-09-28T05:32:31.282Z,19.73
2022-09-28T05:35:12.915Z,14.68
2022-09-28T05:37:45.424Z,11.73
2022-09-28T05:40:13.675Z,9.35
2022-09-28T05:42:41.941Z,9.63
2022-09-28T05:45:10.478Z,12.65
2022-09-28T05:47:43.029Z,9.03
2022-09-28T05:50:14.835Z,6.58
2022-09-28T05:52:43.962Z,8.48
2022-09-28T05:55:11.655Z,6.40
2022-09-28T05:57:39.257Z,9.18
2022-09-28T06:00:09.693Z,15.95
2022-09-28T06:02:40.237Z,15.53
2022-09-28T06:05:09.662Z,6.67
2022-09-28T06:07:37.067Z,5.50
2022-09-28T06:10:05.860Z,13.88
2022-09-28T06:12:35.283Z,11.70
2022-09-28T06:15:06.457Z,13.15
2022-09-28T06:17:34.239Z,7.45
2022-09-28T06:20:11.314Z,10.40
2022-09-28T06:22:55.016Z,5.15
2022-09-28T06:28:01.422Z,4.58
2022-09-28T06:30:31.958Z,4.85
2022-09-28T06:33:01.744Z,4.40
2022-09-28T06:35:31.665Z,4.92
2022-09-28T06:38:00.027Z,3.60
2022-09-28T06:40:28.569Z,5.67
2022-09-28T06:43:01.870Z,3.02
2022-09-28T06:45:31.114Z,2.70
2022-09-28T06:48:07.969Z,3.08
2022-09-28T06:50:42.616Z,2.42
2022-09-28T06:53:15.520Z,3.25
2022-09-28T06:55:51.143Z,7.28
2022-09-28T06:58:20.531Z,2.70
2022-09-28T07:00:51.337Z,2.30
2022-09-28T07:03:21.717Z,5.40
2022-09-28T07:05:54.587Z,4.72
2022-09-28T07:08:35.708Z,5.40
